Time;durP1;ratioP1;P1;durP2;ratioP2;P2;SDS_P1;SDS_P2;PMS_P1;PMS_P2;Temp;Humidity;BMP_temperature;BMP_pressure;BME280_temperature;BME280_humidity;BME280_pressure;Samples;Min_cycle;Max_cycle;Signal;HPM_P1;HPM_P2
2022/01/27 00:02:18;;;;;;;23.10;12.53;;;;;;;;;;5097427;28;20446;-66
2022/01/27 00:05:01;;;;;;;27.00;14.10;;;;;;;;;;5105365;28;21004;-66
2022/01/27 00:07:30;;;;;;;29.63;12.48;;;;;;;;;;5117396;28;20520;-66
2022/01/27 00:10:12;;;;;;;23.02;11.77;;;;;;;;;;5109419;28;20189;-66
2022/01/27 00:12:42;;;;;;;25.25;13.02;;;;;;;;;;5099179;28;20223;-66
2022/01/27 00:15:12;;;;;;;23.75;12.43;;;;;;;;;;5099396;28;20201;-66
2022/01/27 00:17:44;;;;;;;27.33;12.80;;;;;;;;;;5099236;28;20312;-66
2022/01/27 00:20:12;;;;;;;24.38;12.27;;;;;;;;;;5099309;28;20221;-66
2022/01/27 00:22:40;;;;;;;29.20;13.20;;;;;;;;;;5098789;28;20771;-66
2022/01/27 00:25:10;;;;;;;23.38;13.38;;;;;;;;;;5109922;28;20215;-66
2022/01/27 00:27:39;;;;;;;26.85;13.65;;;;;;;;;;5117179;28;20249;-66
2022/01/27 00:30:08;;;;;;;23.65;12.70;;;;;;;;;;5119448;28;20201;-66
2022/01/27 00:32:36;;;;;;;30.80;12.88;;;;;;;;;;5114873;28;20204;-66
2022/01/27 00:35:04;;;;;;;26.55;12.75;;;;;;;;;;5098669;28;20205;-66
2022/01/27 00:37:33;;;;;;;26.42;12.73;;;;;;;;;;5098370;28;20240;-66
2022/01/27 00:40:01;;;;;;;26.80;14.03;;;;;;;;;;5105829;28;20221;-66
2022/01/27 00:42:31;;;;;;;30.50;14.40;;;;;;;;;;5098434;28;20443;-66
2022/01/27 00:44:59;;;;;;;31.90;13.45;;;;;;;;;;5098781;28;20205;-66
2022/01/27 00:47:27;;;;;;;30.98;13.80;;;;;;;;;;5098873;28;20244;-66
2022/01/27 00:49:55;;;;;;;25.73;12.75;;;;;;;;;;5098495;28;20210;-66
2022/01/27 00:52:28;;;;;;;30.42;14.23;;;;;;;;;;5097964;28;20296;-66
2022/01/27 00:54:56;;;;;;;27.50;13.48;;;;;;;;;;5100017;28;20216;-66
2022/01/27 00:57:37;;;;;;;26.88;13.70;;;;;;;;;;5114347;27;20221;-66
2022/01/27 01:00:08;;;;;;;29.25;13.45;;;;;;;;;;5098346;28;20229;-66
2022/01/27 01:02:45;;;;;;;24.50;13.40;;;;;;;;;;5098292;28;20197;-66
2022/01/27 01:05:30;;;;;;;26.23;12.82;;;;;;;;;;5098303;28;20201;-66
2022/01/27 01:08:23;;;;;;;25.73;11.90;;;;;;;;;;5098751;28;20637;-66
2022/01/27 01:14:19;;;;;;;31.05;13.40;;;;;;;;;;5098510;28;20241;-66
2022/01/27 01:16:49;;;;;;;25.52;11.75;;;;;;;;;;5098008;28;20289;-66
2022/01/27 01:19:27;;;;;;;26.83;12.95;;;;;;;;;;5097142;28;20646;-66
2022/01/27 01:29:21;;;;;;;29.53;13.50;;;;;;;;;;5098071;28;20219;-66
2022/01/27 01:30:33;;;;;;;21.60;11.73;;;;;;;;;;5097972;28;20522;-67
2022/01/27 01:33:05;;;;;;;19.60;11.23;;;;;;;;;;5097993;28;20443;-66
2022/01/27 01:35:48;;;;;;;24.73;11.47;;;;;;;;;;5097175;28;20479;-67
2022/01/27 01:38:17;;;;;;;24.03;12.00;;;;;;;;;;5100827;28;20454;-66
2022/01/27 01:40:47;;;;;;;23.77;12.47;;;;;;;;;;5101225;28;20479;-67
2022/01/27 01:43:15;;;;;;;27.83;12.20;;;;;;;;;;5098118;28;20448;-67
2022/01/27 01:45:44;;;;;;;26.37;12.90;;;;;;;;;;5097582;28;20811;-66
2022/01/27 01:48:15;;;;;;;24.40;11.57;;;;;;;;;;5098080;28;20443;-67
2022/01/27 01:50:44;;;;;;;22.30;11.33;;;;;;;;;;5097603;28;20605;-67
2022/01/27 01:53:12;;;;;;;19.00;11.30;;;;;;;;;;5106524;28;20453;-67
2022/01/27 01:55:40;;;;;;;25.77;11.63;;;;;;;;;;5117373;28;20447;-67
2022/01/27 01:58:08;;;;;;;27.13;13.00;;;;;;;;;;5108709;28;20934;-67
2022/01/27 02:00:36;;;;;;;25.47;11.93;;;;;;;;;;5097786;28;20483;-66
2022/01/27 02:03:04;;;;;;;30.90;12.40;;;;;;;;;;5097562;28;20454;-66
2022/01/27 02:05:39;;;;;;;29.90;14.20;;;;;;;;;;5097452;28;20924;-67
2022/01/27 02:08:28;;;;;;;21.63;12.20;;;;;;;;;;5105572;28;20525;-66
2022/01/27 02:19:13;;;;;;;23.70;11.63;;;;;;;;;;5106869;28;20480;-67
2022/01/27 02:21:46;;;;;;;26.60;12.00;;;;;;;;;;5117781;28;20477;-67
2022/01/27 02:24:15;;;;;;;24.47;11.40;;;;;;;;;;5117584;28;20447;-67
2022/01/27 02:26:43;;;;;;;24.63;12.43;;;;;;;;;;5117659;28;20844;-67
2022/01/27 02:29:11;;;;;;;24.30;12.57;;;;;;;;;;5099909;28;20451;-67
2022/01/27 02:31:39;;;;;;;33.90;15.63;;;;;;;;;;5101565;28;20443;-67
2022/01/27 02:34:07;;;;;;;28.50;12.50;;;;;;;;;;5101493;28;20471;-67
2022/01/27 02:36:35;;;;;;;30.77;13.60;;;;;;;;;;5100590;28;20483;-66
2022/01/27 02:39:06;;;;;;;27.33;14.10;;;;;;;;;;5111016;28;20445;-66
2022/01/27 02:41:37;;;;;;;26.45;13.63;;;;;;;;;;5101525;28;20823;-67
2022/01/27 02:44:05;;;;;;;27.75;12.60;;;;;;;;;;5101079;28;20656;-67
2022/01/27 02:46:37;;;;;;;34.05;14.95;;;;;;;;;;5101080;28;20225;-67
2022/01/27 02:49:05;;;;;;;27.70;13.23;;;;;;;;;;5101157;28;20205;-66
2022/01/27 02:51:35;;;;;;;30.65;13.50;;;;;;;;;;5100641;28;20206;-66
2022/01/27 02:54:03;;;;;;;25.45;12.60;;;;;;;;;;5101075;28;20210;-66
2022/01/27 02:56:34;;;;;;;20.35;12.07;;;;;;;;;;5110783;28;20237;-67
2022/01/27 02:59:02;;;;;;;20.73;11.23;;;;;;;;;;5100936;28;20212;-66
2022/01/27 03:01:30;;;;;;;23.90;11.82;;;;;;;;;;5118294;28;20695;-66
2022/01/27 03:03:58;;;;;;;28.15;11.55;;;;;;;;;;5121254;28;20660;-66
2022/01/27 03:06:26;;;;;;;19.75;9.35;;;;;;;;;;5118408;28;20225;-66
2022/01/27 03:08:54;;;;;;;22.05;10.70;;;;;;;;;;5121200;28;20258;-66
2022/01/27 03:11:35;;;;;;;25.70;13.25;;;;;;;;;;5106812;28;20560;-67
2022/01/27 03:14:05;;;;;;;17.90;10.20;;;;;;;;;;5100475;28;20571;-66
2022/01/27 03:16:33;;;;;;;23.67;11.75;;;;;;;;;;5099926;28;20228;-67
2022/01/27 03:19:01;;;;;;;21.35;10.57;;;;;;;;;;5100035;28;20216;-66
2022/01/27 03:21:29;;;;;;;20.10;10.15;;;;;;;;;;5117448;28;20224;-67
2022/01/27 03:23:57;;;;;;;22.50;10.68;;;;;;;;;;5120574;28;20204;-67
2022/01/27 03:26:26;;;;;;;20.85;10.80;;;;;;;;;;5107750;28;20281;-67
2022/01/27 03:28:54;;;;;;;18.70;9.82;;;;;;;;;;5099144;28;20209;-67
2022/01/27 03:31:23;;;;;;;24.30;12.45;;;;;;;;;;5115304;28;20201;-67
2022/01/27 03:33:51;;;;;;;15.38;8.68;;;;;;;;;;5118988;28;20562;-67
2022/01/27 03:36:19;;;;;;;18.85;9.13;;;;;;;;;;5104041;28;20236;-67
2022/01/27 03:38:47;;;;;;;17.58;9.48;;;;;;;;;;5107445;28;20197;-67
2022/01/27 03:41:19;;;;;;;25.27;10.00;;;;;;;;;;5118783;28;20228;-67
2022/01/27 03:43:48;;;;;;;21.27;9.95;;;;;;;;;;5119757;28;20652;-67
2022/01/27 03:46:17;;;;;;;21.13;11.73;;;;;;;;;;5104276;28;20225;-66
2022/01/27 03:48:46;;;;;;;24.25;11.15;;;;;;;;;;5099952;28;20206;-67
2022/01/27 03:51:14;;;;;;;31.93;15.03;;;;;;;;;;5099587;28;20566;-67
2022/01/27 03:53:43;;;;;;;29.67;14.05;;;;;;;;;;5099107;28;20428;-67
2022/01/27 03:56:11;;;;;;;28.55;12.70;;;;;;;;;;5108944;28;20225;-67
2022/01/27 03:58:39;;;;;;;24.63;13.40;;;;;;;;;;5098004;28;20209;-67
2022/01/27 04:01:07;;;;;;;24.25;12.88;;;;;;;;;;5097723;28;20218;-67
2022/01/27 04:03:37;;;;;;;24.42;12.68;;;;;;;;;;5097935;28;20201;-67
2022/01/27 04:06:08;;;;;;;26.48;11.98;;;;;;;;;;5097203;28;20221;-67
2022/01/27 04:08:37;;;;;;;26.65;13.15;;;;;;;;;;5097985;28;20201;-67
2022/01/27 04:11:05;;;;;;;24.97;12.47;;;;;;;;;;5098053;28;20229;-67
2022/01/27 04:13:33;;;;;;;28.43;12.37;;;;;;;;;;5099476;28;20450;-67
2022/01/27 04:16:02;;;;;;;20.70;11.07;;;;;;;;;;5099016;28;20463;-67
2022/01/27 04:18:33;;;;;;;26.33;11.75;;;;;;;;;;5099270;28;20447;-67
2022/01/27 04:21:01;;;;;;;29.33;12.65;;;;;;;;;;5099033;28;20222;-67
2022/01/27 04:23:30;;;;;;;28.88;14.20;;;;;;;;;;5099210;28;20201;-67
2022/01/27 04:25:58;;;;;;;23.13;12.55;;;;;;;;;;5099453;28;20222;-67
2022/01/27 04:28:30;;;;;;;26.70;11.40;;;;;;;;;;5099092;28;20241;-67
2022/01/27 04:31:02;;;;;;;23.15;11.10;;;;;;;;;;5111384;28;20284;-67
2022/01/27 04:33:32;;;;;;;23.10;10.57;;;;;;;;;;5119353;28;20213;-67
2022/01/27 04:36:05;;;;;;;24.47;12.53;;;;;;;;;;5105776;27;20272;-67
2022/01/27 04:38:40;;;;;;;31.00;11.70;;;;;;;;;;5104415;28;20518;-67
2022/01/27 04:41:14;;;;;;;27.77;12.63;;;;;;;;;;5117815;28;20984;-67
2022/01/27 04:43:48;;;;;;;25.73;12.33;;;;;;;;;;5119060;28;20831;-67
2022/01/27 04:46:26;;;;;;;21.33;11.73;;;;;;;;;;5103284;28;20533;-67
2022/01/27 04:48:58;;;;;;;22.30;12.67;;;;;;;;;;5098654;28;20478;-67
2022/01/27 04:51:26;;;;;;;23.73;11.83;;;;;;;;;;5098748;28;20448;-67
2022/01/27 04:54:01;;;;;;;23.10;10.57;;;;;;;;;;5097661;28;20439;-67
2022/01/27 04:56:35;;;;;;;26.27;12.23;;;;;;;;;;5108547;28;20834;-67
2022/01/27 04:59:08;;;;;;;27.30;12.27;;;;;;;;;;5103222;28;20453;-66
2022/01/27 05:01:37;;;;;;;18.63;9.82;;;;;;;;;;5106168;28;20477;-67
2022/01/27 05:04:09;;;;;;;19.15;10.52;;;;;;;;;;5106350;28;20205;-66
2022/01/27 05:06:37;;;;;;;16.50;9.75;;;;;;;;;;5108052;28;20217;-66
2022/01/27 05:09:07;;;;;;;21.67;10.63;;;;;;;;;;5112457;28;20211;-66
2022/01/27 05:11:37;;;;;;;23.25;9.88;;;;;;;;;;5118160;28;20581;-66
2022/01/27 05:14:11;;;;;;;22.58;10.70;;;;;;;;;;5118595;28;20205;-66
2022/01/27 05:16:39;;;;;;;21.13;9.55;;;;;;;;;;5115673;28;20221;-66
2022/01/27 05:19:07;;;;;;;23.60;10.80;;;;;;;;;;5113870;28;20200;-67
2022/01/27 05:21:35;;;;;;;25.17;11.75;;;;;;;;;;5115896;28;20221;-67
2022/01/27 05:24:03;;;;;;;17.27;9.73;;;;;;;;;;5110420;28;20198;-67
2022/01/27 05:26:33;;;;;;;20.73;10.27;;;;;;;;;;5096499;28;20577;-66
2022/01/27 05:29:01;;;;;;;21.50;8.98;;;;;;;;;;5105447;28;20560;-66
2022/01/27 05:31:29;;;;;;;18.92;10.68;;;;;;;;;;5102330;28;20208;-66
2022/01/27 05:33:58;;;;;;;16.23;9.05;;;;;;;;;;5104328;28;20250;-66
2022/01/27 05:36:26;;;;;;;18.33;9.55;;;;;;;;;;5104357;28;20309;-67
2022/01/27 05:38:54;;;;;;;19.75;9.95;;;;;;;;;;5103690;28;20194;-67
2022/01/27 05:41:22;;;;;;;13.27;8.85;;;;;;;;;;5103403;28;20221;-66
2022/01/27 05:43:51;;;;;;;18.58;9.80;;;;;;;;;;5107660;28;20200;-66
2022/01/27 05:46:19;;;;;;;18.17;9.32;;;;;;;;;;5104647;28;20629;-66
2022/01/27 05:48:47;;;;;;;17.90;9.13;;;;;;;;;;5103556;28;20255;-67
2022/01/27 05:51:15;;;;;;;20.65;9.38;;;;;;;;;;5109192;28;20201;-67
2022/01/27 05:53:43;;;;;;;19.13;9.63;;;;;;;;;;5107334;28;20215;-67
2022/01/27 05:56:11;;;;;;;18.10;9.45;;;;;;;;;;5105064;28;20226;-66
2022/01/27 05:58:39;;;;;;;16.98;9.98;;;;;;;;;;5105375;28;20205;-66
2022/01/27 06:01:09;;;;;;;18.95;9.20;;;;;;;;;;5116394;28;20208;-66
2022/01/27 06:03:38;;;;;;;23.83;9.88;;;;;;;;;;5117166;28;20205;-66
2022/01/27 06:06:06;;;;;;;18.05;9.35;;;;;;;;;;5115477;28;20607;-66
2022/01/27 06:08:34;;;;;;;22.80;10.77;;;;;;;;;;5101789;28;20288;-66
2022/01/27 06:11:02;;;;;;;16.00;7.53;;;;;;;;;;5102157;28;20229;-66
2022/01/27 06:13:30;;;;;;;17.70;8.27;;;;;;;;;;5102253;28;20193;-66
2022/01/27 06:15:58;;;;;;;20.50;10.05;;;;;;;;;;5102775;28;20260;-66
2022/01/27 06:18:28;;;;;;;23.35;12.15;;;;;;;;;;5109625;28;20193;-66
2022/01/27 06:21:03;;;;;;;21.90;10.20;;;;;;;;;;5105571;28;20197;-66
2022/01/27 06:23:31;;;;;;;19.33;8.70;;;;;;;;;;5108609;28;20563;-67
2022/01/27 06:25:59;;;;;;;26.60;11.02;;;;;;;;;;5107350;28;20591;-66
2022/01/27 06:28:27;;;;;;;20.58;10.02;;;;;;;;;;5110024;28;20208;-65
2022/01/27 06:30:56;;;;;;;26.60;10.50;;;;;;;;;;5109512;28;20221;-66
2022/01/27 06:33:24;;;;;;;22.65;10.18;;;;;;;;;;5115287;28;20196;-66
2022/01/27 06:35:53;;;;;;;22.52;10.15;;;;;;;;;;5102750;28;20242;-65
2022/01/27 06:38:21;;;;;;;22.40;9.98;;;;;;;;;;5106676;28;20200;-67
2022/01/27 06:40:49;;;;;;;18.38;10.00;;;;;;;;;;5108279;28;20209;-66
2022/01/27 06:43:17;;;;;;;17.55;9.05;;;;;;;;;;5116794;28;20223;-66
2022/01/27 06:45:45;;;;;;;17.60;9.00;;;;;;;;;;5101054;28;20240;-66
2022/01/27 06:48:13;;;;;;;20.25;11.02;;;;;;;;;;5100927;28;20665;-66
2022/01/27 06:50:41;;;;;;;21.90;11.45;;;;;;;;;;5100420;28;20213;-67
2022/01/27 06:53:11;;;;;;;25.02;10.30;;;;;;;;;;5100688;28;20202;-67
2022/01/27 06:55:39;;;;;;;23.58;11.27;;;;;;;;;;5107165;28;20239;-67
2022/01/27 06:58:07;;;;;;;24.55;9.73;;;;;;;;;;5109579;28;20205;-67
2022/01/27 07:00:35;;;;;;;28.63;12.35;;;;;;;;;;5105408;28;20198;-67
2022/01/27 07:03:03;;;;;;;25.95;11.50;;;;;;;;;;5110295;28;20561;-70
2022/01/27 07:05:33;;;;;;;23.50;11.13;;;;;;;;;;5105374;28;20205;-69
2022/01/27 07:08:01;;;;;;;18.60;10.60;;;;;;;;;;5101543;28;20679;-69
2022/01/27 07:10:30;;;;;;;20.00;10.25;;;;;;;;;;5100445;28;20205;-69
2022/01/27 07:13:00;;;;;;;21.65;10.82;;;;;;;;;;5099681;28;20202;-69
2022/01/27 07:15:30;;;;;;;22.48;11.43;;;;;;;;;;5100447;28;20205;-71
2022/01/27 07:17:58;;;;;;;19.63;10.48;;;;;;;;;;5098580;28;20212;-71
2022/01/27 07:20:26;;;;;;;21.30;11.40;;;;;;;;;;5100056;28;20213;-69
2022/01/27 07:22:55;;;;;;;24.27;9.93;;;;;;;;;;5099771;28;20482;-70
2022/01/27 07:25:23;;;;;;;20.55;10.23;;;;;;;;;;5099495;28;20466;-68
2022/01/27 07:27:52;;;;;;;23.63;11.47;;;;;;;;;;5099462;28;20232;-67
2022/01/27 07:30:20;;;;;;;20.25;9.57;;;;;;;;;;5099394;28;20450;-65
2022/01/27 07:32:48;;;;;;;16.55;8.77;;;;;;;;;;5102272;28;20194;-65
2022/01/27 07:35:17;;;;;;;25.90;11.25;;;;;;;;;;5102282;28;20286;-65
2022/01/27 07:37:46;;;;;;;18.85;10.20;;;;;;;;;;5100916;28;20259;-65
2022/01/27 07:40:14;;;;;;;20.67;10.70;;;;;;;;;;5113205;28;20197;-66
2022/01/27 07:43:09;;;;;;;16.73;8.68;;;;;;;;;;5099554;28;20230;-65
2022/01/27 07:45:37;;;;;;;23.98;11.20;;;;;;;;;;5099069;28;20196;-65
2022/01/27 07:48:06;;;;;;;22.67;11.40;;;;;;;;;;5098180;28;20210;-65
2022/01/27 07:50:34;;;;;;;26.17;11.02;;;;;;;;;;5102895;28;20277;-65
2022/01/27 07:53:02;;;;;;;24.98;10.80;;;;;;;;;;5099499;28;20568;-65
2022/01/27 07:55:30;;;;;;;28.08;12.35;;;;;;;;;;5102082;28;20285;-65
2022/01/27 07:57:58;;;;;;;25.30;11.02;;;;;;;;;;5110076;28;20274;-64
2022/01/27 08:00:27;;;;;;;21.13;10.20;;;;;;;;;;5100957;28;20212;-66
2022/01/27 08:02:55;;;;;;;21.73;10.43;;;;;;;;;;5098939;28;20585;-67
2022/01/27 08:05:24;;;;;;;20.87;10.40;;;;;;;;;;5097821;28;20443;-67
2022/01/27 08:07:52;;;;;;;22.87;11.30;;;;;;;;;;5118158;28;20554;-66
2022/01/27 08:10:20;;;;;;;26.53;12.93;;;;;;;;;;5117247;28;20470;-67
2022/01/27 08:12:48;;;;;;;25.48;12.40;;;;;;;;;;5097791;28;20449;-66
2022/01/27 08:15:19;;;;;;;29.10;12.35;;;;;;;;;;5110353;28;20211;-67
2022/01/27 08:17:48;;;;;;;29.10;12.77;;;;;;;;;;5118492;27;20307;-67
2022/01/27 08:20:16;;;;;;;23.77;11.30;;;;;;;;;;5099594;28;20868;-66
2022/01/27 08:22:46;;;;;;;30.05;13.15;;;;;;;;;;5107289;28;20235;-66
2022/01/27 08:25:14;;;;;;;19.98;9.63;;;;;;;;;;5107098;28;20197;-67
2022/01/27 08:27:49;;;;;;;24.25;11.30;;;;;;;;;;5106466;28;20623;-66
2022/01/27 08:30:19;;;;;;;31.33;11.40;;;;;;;;;;5106659;28;20223;-67
2022/01/27 08:32:55;;;;;;;25.58;11.70;;;;;;;;;;5106589;28;20209;-66
2022/01/27 08:35:24;;;;;;;26.98;13.88;;;;;;;;;;5106196;28;20287;-67
2022/01/27 08:37:52;;;;;;;23.40;13.40;;;;;;;;;;5106508;28;20300;-66
2022/01/27 08:40:21;;;;;;;27.05;12.23;;;;;;;;;;5106338;28;20197;-66
2022/01/27 08:43:09;;;;;;;20.83;11.98;;;;;;;;;;5103803;28;20286;-67
2022/01/27 08:45:38;;;;;;;25.88;12.18;;;;;;;;;;5098535;28;20201;-66
2022/01/27 08:48:10;;;;;;;26.00;12.68;;;;;;;;;;5101071;28;20284;-67
2022/01/27 08:50:38;;;;;;;22.27;10.55;;;;;;;;;;5107551;28;20198;-66
2022/01/27 08:53:06;;;;;;;27.52;11.35;;;;;;;;;;5105629;28;20196;-65
2022/01/27 08:55:34;;;;;;;23.05;11.52;;;;;;;;;;5107285;28;20204;-66
2022/01/27 08:58:02;;;;;;;27.90;11.73;;;;;;;;;;5104499;28;20732;-67
2022/01/27 09:00:30;;;;;;;33.50;13.77;;;;;;;;;;5102799;28;20275;-66
2022/01/27 09:02:58;;;;;;;24.00;10.43;;;;;;;;;;5103790;28;20479;-67
2022/01/27 09:05:28;;;;;;;23.27;13.13;;;;;;;;;;5107485;28;20522;-67
2022/01/27 09:07:59;;;;;;;23.02;11.35;;;;;;;;;;5106127;28;20791;-68
2022/01/27 09:10:31;;;;;;;24.42;11.93;;;;;;;;;;5107410;28;20201;-67
2022/01/27 09:12:59;;;;;;;20.85;10.10;;;;;;;;;;5103229;28;20197;-67
2022/01/27 09:15:28;;;;;;;20.00;11.35;;;;;;;;;;5098043;28;20201;-68
2022/01/27 09:17:58;;;;;;;23.40;11.47;;;;;;;;;;5097970;28;20272;-68
2022/01/27 09:20:28;;;;;;;26.00;11.07;;;;;;;;;;5099666;28;20862;-70
2022/01/27 09:22:58;;;;;;;21.85;10.85;;;;;;;;;;5118298;28;20207;-71
2022/01/27 09:25:31;;;;;;;21.57;11.27;;;;;;;;;;5098619;28;20202;-71
2022/01/27 09:27:59;;;;;;;17.27;10.38;;;;;;;;;;5101589;28;20481;-69
2022/01/27 09:30:27;;;;;;;20.57;10.20;;;;;;;;;;5118225;28;20207;-69
2022/01/27 09:32:57;;;;;;;24.17;11.95;;;;;;;;;;5112490;28;20455;-69
2022/01/27 09:35:27;;;;;;;22.83;10.30;;;;;;;;;;5097412;28;20296;-69
2022/01/27 09:37:57;;;;;;;25.38;11.52;;;;;;;;;;5097330;28;20236;-70
2022/01/27 09:40:25;;;;;;;27.95;11.63;;;;;;;;;;5097266;28;20205;-70
2022/01/27 09:42:54;;;;;;;22.33;11.18;;;;;;;;;;5097536;28;20251;-71
2022/01/27 09:45:23;;;;;;;28.42;11.45;;;;;;;;;;5097592;28;20293;-71
2022/01/27 09:48:00;;;;;;;26.00;11.73;;;;;;;;;;5096826;28;20228;-70
2022/01/27 09:50:45;;;;;;;28.07;11.80;;;;;;;;;;5096308;28;20497;-70
2022/01/27 09:53:15;;;;;;;26.27;12.63;;;;;;;;;;5102049;28;20450;-70
2022/01/27 09:55:43;;;;;;;25.17;11.97;;;;;;;;;;5117884;28;20445;-72
2022/01/27 09:58:11;;;;;;;24.03;10.87;;;;;;;;;;5098209;28;20486;-69
2022/01/27 10:00:40;;;;;;;23.97;9.97;;;;;;;;;;5097467;28;20439;-71
2022/01/27 10:03:09;;;;;;;23.97;10.40;;;;;;;;;;5097438;28;20454;-74
2022/01/27 10:05:38;;;;;;;20.23;10.07;;;;;;;;;;5096958;28;20786;-71
2022/01/27 10:08:08;;;;;;;23.00;11.77;;;;;;;;;;5097500;28;20451;-73
2022/01/27 10:10:40;;;;;;;22.43;11.53;;;;;;;;;;5097620;28;20519;-72
2022/01/27 10:13:10;;;;;;;20.53;10.90;;;;;;;;;;5097665;28;20605;-73
2022/01/27 10:15:45;;;;;;;25.57;11.07;;;;;;;;;;5097582;28;20443;-73
2022/01/27 10:18:15;;;;;;;24.70;12.10;;;;;;;;;;5098587;28;20490;-73
2022/01/27 10:20:44;;;;;;;28.53;11.40;;;;;;;;;;5117320;28;20541;-73
2022/01/27 10:23:15;;;;;;;24.00;11.13;;;;;;;;;;5113109;28;20862;-74
2022/01/27 10:25:51;;;;;;;27.40;13.00;;;;;;;;;;5117806;28;20555;-72
2022/01/27 10:28:32;;;;;;;24.30;12.25;;;;;;;;;;5109695;28;20522;-73
2022/01/27 10:31:01;;;;;;;19.27;10.40;;;;;;;;;;5097390;28;20213;-70
2022/01/27 10:33:40;;;;;;;26.07;9.87;;;;;;;;;;5097245;28;20455;-70
2022/01/27 10:36:15;;;;;;;25.77;11.07;;;;;;;;;;5096566;28;20489;-70
2022/01/27 10:38:43;;;;;;;21.47;10.47;;;;;;;;;;5103268;28;20451;-70
2022/01/27 10:41:18;;;;;;;20.17;10.30;;;;;;;;;;5097182;28;20444;-70
2022/01/27 10:43:46;;;;;;;24.13;11.30;;;;;;;;;;5097248;28;20478;-70
2022/01/27 10:46:21;;;;;;;24.83;11.73;;;;;;;;;;5097175;28;20459;-71
2022/01/27 10:48:53;;;;;;;21.80;11.17;;;;;;;;;;5097449;28;20451;-70
2022/01/27 10:51:25;;;;;;;27.70;11.77;;;;;;;;;;5098161;28;20453;-70
2022/01/27 10:53:57;;;;;;;23.13;11.00;;;;;;;;;;5100550;28;20454;-71
2022/01/27 10:56:27;;;;;;;27.67;10.70;;;;;;;;;;5113658;28;20458;-71
2022/01/27 10:58:56;;;;;;;18.33;10.93;;;;;;;;;;5104454;28;20451;-70
2022/01/27 11:01:28;;;;;;;24.37;10.93;;;;;;;;;;5100918;28;20980;-70
2022/01/27 11:03:58;;;;;;;26.10;12.47;;;;;;;;;;5114663;28;20481;-71
2022/01/27 11:06:28;;;;;;;24.50;10.33;;;;;;;;;;5118100;28;20470;-71
2022/01/27 11:08:58;;;;;;;25.97;12.33;;;;;;;;;;5120932;28;20885;-70
2022/01/27 11:11:31;;;;;;;26.87;11.73;;;;;;;;;;5121038;28;20443;-70
2022/01/27 11:13:59;;;;;;;30.83;13.10;;;;;;;;;;5121056;28;20951;-70
2022/01/27 11:16:36;;;;;;;27.33;12.03;;;;;;;;;;5116084;28;20473;-70
2022/01/27 11:19:23;;;;;;;30.27;13.93;;;;;;;;;;5100130;28;20882;-70
2022/01/27 11:21:57;;;;;;;27.93;12.33;;;;;;;;;;5100121;28;20538;-70
2022/01/27 11:24:32;;;;;;;22.67;10.83;;;;;;;;;;5101232;28;20944;-71
2022/01/27 11:27:05;;;;;;;22.47;11.57;;;;;;;;;;5120934;28;20472;-70
2022/01/27 11:29:38;;;;;;;26.03;12.37;;;;;;;;;;5116967;27;20454;-70
2022/01/27 11:32:12;;;;;;;27.60;12.38;;;;;;;;;;5100178;28;20950;-70
2022/01/27 11:34:47;;;;;;;23.65;10.35;;;;;;;;;;5100315;28;20193;-70
2022/01/27 11:37:18;;;;;;;24.60;11.47;;;;;;;;;;5099640;28;20237;-70
2022/01/27 11:39:53;;;;;;;27.00;11.87;;;;;;;;;;5114379;28;20447;-70
2022/01/27 11:42:42;;;;;;;30.75;12.82;;;;;;;;;;5120263;28;20525;-69
2022/01/27 11:45:26;;;;;;;25.23;11.27;;;;;;;;;;5118891;28;20307;-69
2022/01/27 11:47:56;;;;;;;19.20;11.05;;;;;;;;;;5119877;28;20589;-70
2022/01/27 11:50:32;;;;;;;20.63;10.30;;;;;;;;;;5099994;28;20581;-71
2022/01/27 11:53:01;;;;;;;25.37;11.77;;;;;;;;;;5099895;28;20443;-70
2022/01/27 11:55:40;;;;;;;23.30;12.37;;;;;;;;;;5105550;28;20993;-70
2022/01/27 11:58:20;;;;;;;26.30;10.93;;;;;;;;;;5103955;28;20443;-70
2022/01/27 12:01:06;;;;;;;26.63;11.70;;;;;;;;;;5099919;28;20822;-70
2022/01/27 12:03:34;;;;;;;26.53;11.73;;;;;;;;;;5103106;28;20442;-70
2022/01/27 12:06:12;;;;;;;22.27;11.37;;;;;;;;;;5119563;28;20543;-70
2022/01/27 12:08:40;;;;;;;26.47;10.97;;;;;;;;;;5113820;27;20538;-70
2022/01/27 12:11:47;;;;;;;24.73;10.10;;;;;;;;;;5099594;28;20451;-70
2022/01/27 12:14:18;;;;;;;24.50;10.83;;;;;;;;;;5099804;28;20540;-70
2022/01/27 12:17:09;;;;;;;26.40;10.47;;;;;;;;;;5099123;28;21025;-70
2022/01/27 12:19:46;;;;;;;22.77;11.00;;;;;;;;;;5099477;28;20460;-70
2022/01/27 12:22:15;;;;;;;24.30;9.77;;;;;;;;;;5099298;28;20442;-70
2022/01/27 12:24:51;;;;;;;24.77;11.63;;;;;;;;;;5099223;28;20501;-70
2022/01/27 12:27:19;;;;;;;21.17;10.47;;;;;;;;;;5099176;28;20840;-70
2022/01/27 12:30:10;;;;;;;25.80;10.67;;;;;;;;;;5099045;28;20442;-70
2022/01/27 12:32:38;;;;;;;29.83;11.47;;;;;;;;;;5099071;28;20445;-69
2022/01/27 12:35:09;;;;;;;24.80;11.67;;;;;;;;;;5116257;28;20815;-69
2022/01/27 12:37:38;;;;;;;21.20;11.33;;;;;;;;;;5119906;28;20491;-69
2022/01/27 12:40:07;;;;;;;23.20;12.03;;;;;;;;;;5117003;28;20474;-70
2022/01/27 12:42:37;;;;;;;27.80;11.65;;;;;;;;;;5119117;28;20860;-70
2022/01/27 12:45:08;;;;;;;29.50;12.40;;;;;;;;;;5110487;28;20221;-70
2022/01/27 12:47:40;;;;;;;27.02;12.35;;;;;;;;;;5098644;28;20232;-70
2022/01/27 12:50:10;;;;;;;31.00;12.30;;;;;;;;;;5098666;28;20206;-70
2022/01/27 12:52:41;;;;;;;23.67;12.30;;;;;;;;;;5098531;28;20214;-69
2022/01/27 12:55:10;;;;;;;28.00;11.90;;;;;;;;;;5101722;28;20445;-70
2022/01/27 12:57:54;;;;;;;23.57;11.63;;;;;;;;;;5101220;28;20459;-70
2022/01/27 13:00:22;;;;;;;25.58;11.27;;;;;;;;;;5098564;28;20458;-70
2022/01/27 13:02:52;;;;;;;26.80;12.33;;;;;;;;;;5104674;28;20211;-71
2022/01/27 13:05:20;;;;;;;35.13;14.97;;;;;;;;;;5115684;28;22731;-71
2022/01/27 13:07:48;;;;;;;34.40;17.17;;;;;;;;;;5098396;28;20472;-71
2022/01/27 13:10:19;;;;;;;27.60;13.90;;;;;;;;;;5100548;28;20539;-70
2022/01/27 13:12:50;;;;;;;24.30;11.43;;;;;;;;;;5110438;28;20869;-70
2022/01/27 13:15:20;;;;;;;26.03;12.30;;;;;;;;;;5111918;28;20501;-71
2022/01/27 13:17:53;;;;;;;26.67;11.37;;;;;;;;;;5098424;28;20498;-71
2022/01/27 13:20:27;;;;;;;31.00;14.97;;;;;;;;;;5097917;28;20463;-71
2022/01/27 13:22:59;;;;;;;26.53;13.47;;;;;;;;;;5098214;28;20447;-71
2022/01/27 13:25:37;;;;;;;30.57;13.90;;;;;;;;;;5097973;28;20977;-71
2022/01/27 13:28:09;;;;;;;29.07;12.60;;;;;;;;;;5098067;28;20548;-70
2022/01/27 13:30:37;;;;;;;30.73;14.33;;;;;;;;;;5098021;28;20515;-71
2022/01/27 13:33:07;;;;;;;29.40;13.27;;;;;;;;;;5097856;28;20443;-70
2022/01/27 13:35:37;;;;;;;29.93;13.27;;;;;;;;;;5097475;28;21002;-71
2022/01/27 13:38:09;;;;;;;26.77;13.30;;;;;;;;;;5097788;28;20447;-71
2022/01/27 13:43:38;;;;;;;27.23;11.93;;;;;;;;;;5074718;28;20519;-71
2022/01/27 13:46:06;;;;;;;27.57;12.87;;;;;;;;;;5075190;28;20488;-70
2022/01/27 13:48:41;;;;;;;26.07;12.50;;;;;;;;;;5094926;28;20447;-70
2022/01/27 13:51:17;;;;;;;32.30;12.80;;;;;;;;;;5105370;28;20922;-71
2022/01/27 13:54:00;;;;;;;28.23;15.03;;;;;;;;;;5097846;28;20453;-70
2022/01/27 13:56:38;;;;;;;27.80;11.90;;;;;;;;;;5108666;28;20465;-70
2022/01/27 13:59:11;;;;;;;28.27;12.07;;;;;;;;;;5097682;28;20448;-71
2022/01/27 14:01:39;;;;;;;22.50;12.57;;;;;;;;;;5097664;28;20501;-71
2022/01/27 14:04:08;;;;;;;31.47;12.90;;;;;;;;;;5117655;28;20446;-71
2022/01/27 14:06:52;;;;;;;27.03;11.23;;;;;;;;;;5115341;28;20570;-71
2022/01/27 14:09:22;;;;;;;27.97;12.27;;;;;;;;;;5118185;28;20468;-71
2022/01/27 14:12:00;;;;;;;26.33;12.33;;;;;;;;;;5113130;28;20446;-71
2022/01/27 14:14:44;;;;;;;26.20;11.40;;;;;;;;;;5118038;28;20439;-71
2022/01/27 14:17:22;;;;;;;31.93;13.00;;;;;;;;;;5101072;28;20526;-71
2022/01/27 14:19:50;;;;;;;30.77;14.43;;;;;;;;;;5097285;28;20462;-71
2022/01/27 14:22:21;;;;;;;29.33;13.33;;;;;;;;;;5097672;28;20448;-71
2022/01/27 14:25:02;;;;;;;27.57;13.67;;;;;;;;;;5097573;28;20879;-71
2022/01/27 14:27:37;;;;;;;28.77;13.40;;;;;;;;;;5100179;28;20562;-70
2022/01/27 14:30:07;;;;;;;29.87;13.93;;;;;;;;;;5101356;28;20498;-70
2022/01/27 14:32:35;;;;;;;25.73;13.03;;;;;;;;;;5101345;28;20581;-70
2022/01/27 14:35:07;;;;;;;24.37;12.40;;;;;;;;;;5100718;28;20443;-70
2022/01/27 14:37:37;;;;;;;28.23;12.27;;;;;;;;;;5100852;28;20566;-71
2022/01/27 14:40:08;;;;;;;28.07;13.87;;;;;;;;;;5105500;28;20811;-70
2022/01/27 14:42:36;;;;;;;32.00;13.13;;;;;;;;;;5101283;28;20447;-71
2022/01/27 14:45:05;;;;;;;30.50;12.40;;;;;;;;;;5101339;28;20475;-70
2022/01/27 14:47:40;;;;;;;28.50;14.37;;;;;;;;;;5100403;28;20479;-70
2022/01/27 14:50:09;;;;;;;26.47;12.77;;;;;;;;;;5100764;28;20922;-71
2022/01/27 14:52:42;;;;;;;29.00;11.90;;;;;;;;;;5101229;28;20454;-71
2022/01/27 14:55:10;;;;;;;29.63;13.30;;;;;;;;;;5113159;28;20439;-71
2022/01/27 14:57:39;;;;;;;30.67;12.07;;;;;;;;;;5111727;28;20456;-71
2022/01/27 15:00:08;;;;;;;29.53;13.47;;;;;;;;;;5114176;28;20480;-71
2022/01/27 15:02:37;;;;;;;32.57;13.83;;;;;;;;;;5121262;28;20449;-71